createdAt,value
2023-12-24T00:01:33.929Z,5.83
2023-12-24T00:03:33.827Z,5.82
2023-12-24T00:05:33.769Z,5.85
2023-12-24T00:07:33.846Z,5.88
2023-12-24T00:11:26.275Z,5.92
2023-12-24T00:13:26.231Z,5.9
2023-12-24T00:15:26.191Z,5.92
2023-12-24T00:17:26.239Z,5.86
2023-12-24T00:19:26.272Z,5.98
2023-12-24T00:21:26.255Z,5.99
2023-12-24T00:23:26.244Z,6.03
2023-12-24T00:26:16.489Z,6.07
2023-12-24T00:28:16.569Z,6.02
2023-12-24T00:30:16.503Z,6
2023-12-24T00:32:16.481Z,5.94
2023-12-24T00:34:16.540Z,5.96
2023-12-24T00:36:16.448Z,5.99
2023-12-24T00:38:16.494Z,6.04
2023-12-24T00:41:00.795Z,6.1
2023-12-24T00:43:00.492Z,6.12
2023-12-24T00:45:00.614Z,6.15
2023-12-24T00:47:00.558Z,6.13
2023-12-24T00:49:00.782Z,6.11
2023-12-24T00:51:00.470Z,6.15
2023-12-24T00:53:00.506Z,6.08
2023-12-24T00:56:08.555Z,6.09
2023-12-24T00:58:08.515Z,6.15
2023-12-24T01:00:08.496Z,6.2
2023-12-24T01:02:08.530Z,6.23
2023-12-24T01:04:08.594Z,6.22
2023-12-24T01:06:08.605Z,6.22
2023-12-24T01:08:08.562Z,6.25
2023-12-24T01:10:08.460Z,6.22
2023-12-24T01:11:11.876Z,6.15
2023-12-24T01:13:11.856Z,6.32
2023-12-24T01:15:11.939Z,6.3
2023-12-24T01:17:11.926Z,6.25
2023-12-24T01:19:11.928Z,6.29
2023-12-24T01:21:11.873Z,6.3
2023-12-24T01:23:11.893Z,6.24
2023-12-24T01:25:11.844Z,6.29
2023-12-24T01:26:32.561Z,6.36
2023-12-24T01:28:32.525Z,6.42
2023-12-24T01:30:32.591Z,6.43
2023-12-24T01:32:32.724Z,6.43
2023-12-24T01:34:32.507Z,6.45
2023-12-24T01:36:32.506Z,6.4
2023-12-24T01:38:32.621Z,6.38
2023-12-24T01:42:01.483Z,6.53
2023-12-24T01:44:01.614Z,6.54
2023-12-24T01:46:01.590Z,6.56
2023-12-24T01:48:01.554Z,6.56
2023-12-24T01:50:01.475Z,6.54
2023-12-24T01:52:01.616Z,6.55
2023-12-24T01:54:02.976Z,6.56
2023-12-24T01:57:21.247Z,6.52
2023-12-24T01:59:21.300Z,6.54
2023-12-24T02:01:21.287Z,6.5
2023-12-24T02:03:21.318Z,6.48
2023-12-24T02:05:21.338Z,6.43
2023-12-24T02:07:21.249Z,6.41
2023-12-24T02:09:21.238Z,6.41
2023-12-24T02:12:44.109Z,6.42
2023-12-24T02:14:44.197Z,6.45
2023-12-24T02:16:44.074Z,6.46
2023-12-24T02:18:44.254Z,6.47
2023-12-24T02:20:44.183Z,6.51
2023-12-24T02:22:44.243Z,6.51
2023-12-24T02:24:43.997Z,6.54
2023-12-24T02:27:53.909Z,6.56
2023-12-24T02:29:53.885Z,6.55
2023-12-24T02:31:53.909Z,6.58
2023-12-24T02:33:53.908Z,6.59
2023-12-24T02:35:53.875Z,6.58
2023-12-24T02:37:53.873Z,6.62
2023-12-24T02:39:53.864Z,6.64
2023-12-24T02:42:13.894Z,6.64
2023-12-24T02:44:13.882Z,6.57
2023-12-24T02:46:13.964Z,6.61
2023-12-24T02:48:13.971Z,6.58
2023-12-24T02:50:13.948Z,6.52
2023-12-24T02:52:13.939Z,6.47
2023-12-24T02:54:13.858Z,5.78
2023-12-24T02:56:13.844Z,5.39
2023-12-24T02:57:27.358Z,5.38
2023-12-24T02:59:27.361Z,5.5
2023-12-24T03:01:27.341Z,5.5
2023-12-24T03:03:27.635Z,5.5
2023-12-24T03:05:27.454Z,5.5
2023-12-24T03:07:27.450Z,5.52
2023-12-24T03:09:27.460Z,5.48
2023-12-24T03:11:27.778Z,5.56
2023-12-24T03:13:12.352Z,5.55
2023-12-24T03:15:12.320Z,5.58
2023-12-24T03:17:12.388Z,5.57
2023-12-24T03:19:12.435Z,5.49
2023-12-24T03:21:12.311Z,5.46
2023-12-24T03:23:12.356Z,5.5
2023-12-24T03:25:12.363Z,5.59
2023-12-24T03:27:44.754Z,5.62
2023-12-24T03:29:44.869Z,5.63
2023-12-24T03:31:44.833Z,5.64
2023-12-24T03:33:44.880Z,5.67
2023-12-24T03:35:44.932Z,5.65
2023-12-24T03:37:44.727Z,5.63
2023-12-24T03:39:44.751Z,5.6
2023-12-24T03:41:44.858Z,5.61
2023-12-24T03:43:00.521Z,5.65
2023-12-24T03:45:00.517Z,5.65
2023-12-24T03:47:00.720Z,5.68
2023-12-24T03:49:00.676Z,5.72
2023-12-24T03:51:00.603Z,5.69
2023-12-24T03:53:01.105Z,5.67
2023-12-24T03:55:00.512Z,5.62
2023-12-24T03:58:25.282Z,5.48
2023-12-24T04:00:25.205Z,5.4
2023-12-24T04:02:25.269Z,5.34
2023-12-24T04:04:25.406Z,5.31
2023-12-24T04:06:25.237Z,5.34
2023-12-24T04:08:25.191Z,5.31
2023-12-24T04:10:25.336Z,5.34
2023-12-24T04:13:45.537Z,5.27
2023-12-24T04:15:45.683Z,5.22
2023-12-24T04:17:45.743Z,5.12
2023-12-24T04:19:45.540Z,5.09
2023-12-24T04:21:45.570Z,5.09
2023-12-24T04:23:45.648Z,5.04
2023-12-24T04:25:45.568Z,5.02
2023-12-24T04:28:37.840Z,5
2023-12-24T04:30:37.745Z,5
2023-12-24T04:32:37.844Z,4.9
2023-12-24T04:34:37.775Z,4.89
2023-12-24T04:36:37.807Z,4.7
2023-12-24T04:38:37.816Z,4.53
2023-12-24T04:40:37.756Z,4.38
2023-12-24T04:43:51.777Z,4.29
2023-12-24T04:45:51.753Z,4.36
2023-12-24T04:47:51.809Z,4.39
2023-12-24T04:49:51.838Z,4.32
2023-12-24T04:51:51.871Z,4.3
2023-12-24T04:53:51.854Z,4.3
2023-12-24T04:55:51.761Z,4.32
2023-12-24T04:59:11.236Z,4.39
2023-12-24T05:01:11.234Z,4.49
2023-12-24T05:03:11.278Z,4.5
2023-12-24T05:05:11.236Z,4.51
2023-12-24T05:07:11.251Z,4.53
2023-12-24T05:09:11.198Z,4.56
2023-12-24T05:11:11.185Z,4.59
2023-12-24T05:14:08.610Z,4.55
2023-12-24T05:16:08.588Z,4.54
2023-12-24T05:18:08.692Z,4.51
2023-12-24T05:20:08.592Z,4.48
2023-12-24T05:22:08.638Z,4.46
2023-12-24T05:24:08.578Z,4.46
2023-12-24T05:26:08.603Z,4.44
2023-12-24T05:29:02.460Z,4.34
2023-12-24T05:31:02.319Z,4.33
2023-12-24T05:33:02.431Z,4.29
2023-12-24T05:35:02.355Z,4.23
2023-12-24T05:37:02.484Z,4.17
2023-12-24T05:39:02.345Z,4.18
2023-12-24T05:41:02.310Z,4.16
2023-12-24T05:43:02.339Z,4.02
2023-12-24T05:44:32.724Z,4.13
2023-12-24T05:46:32.726Z,4.18
2023-12-24T05:48:32.762Z,4.22
2023-12-24T05:50:32.770Z,4.18
2023-12-24T05:52:32.754Z,4.17
2023-12-24T05:54:32.794Z,4.18
2023-12-24T05:56:32.708Z,4.1
2023-12-24T05:59:49.358Z,4.15
2023-12-24T06:01:49.262Z,4.19
2023-12-24T06:03:49.270Z,4.23
2023-12-24T06:05:49.447Z,4.25
2023-12-24T06:07:49.270Z,4.37
2023-12-24T06:09:49.255Z,4.4
2023-12-24T06:11:49.223Z,4.45
2023-12-24T06:15:06.991Z,4.53
2023-12-24T06:17:06.929Z,4.62
2023-12-24T06:19:07.069Z,4.68
2023-12-24T06:21:06.854Z,4.71
2023-12-24T06:23:06.847Z,4.8
2023-12-24T06:25:06.849Z,4.75
2023-12-24T06:27:06.835Z,4.88
2023-12-24T06:29:59.608Z,4.98
2023-12-24T06:31:59.650Z,5.03
2023-12-24T06:34:00.085Z,5.08
2023-12-24T06:35:59.628Z,5.01
2023-12-24T06:37:59.631Z,5.09
2023-12-24T06:39:59.595Z,4.97
2023-12-24T06:41:59.657Z,4.83
2023-12-24T06:45:21.680Z,4.95
2023-12-24T06:47:21.638Z,5.01
2023-12-24T06:49:21.744Z,5.08
2023-12-24T06:51:21.567Z,5.16
2023-12-24T06:53:21.577Z,5.26
2023-12-24T06:55:21.615Z,5.31
2023-12-24T06:57:21.627Z,5.38
2023-12-24T07:00:02.767Z,5.51
2023-12-24T07:02:02.526Z,5.58
2023-12-24T07:04:02.525Z,5.62
2023-12-24T07:06:02.573Z,5.62
2023-12-24T07:08:02.440Z,5.6
2023-12-24T07:10:05.494Z,5.77
2023-12-24T07:12:02.472Z,5.8
2023-12-24T07:14:02.446Z,5.83
2023-12-24T07:15:12.495Z,5.74
2023-12-24T07:17:12.421Z,5.78
2023-12-24T07:19:12.497Z,5.86
2023-12-24T07:21:12.472Z,5.91
2023-12-24T07:25:12.421Z,6.37
2023-12-24T07:27:12.430Z,6.5
2023-12-24T07:29:12.484Z,6.73
2023-12-24T07:30:56.480Z,6.88
2023-12-24T07:32:56.852Z,7.04
2023-12-24T07:34:56.402Z,7.12
2023-12-24T07:36:56.477Z,7.25
2023-12-24T07:38:56.358Z,7.29
2023-12-24T07:40:56.304Z,7.3
2023-12-24T07:42:56.622Z,7.3
2023-12-24T07:46:13.056Z,7.64
2023-12-24T07:48:13.044Z,7.78
2023-12-24T07:50:12.976Z,7.83
2023-12-24T07:52:12.900Z,7.58
2023-12-24T07:54:12.862Z,7.11
2023-12-24T07:56:12.944Z,7.42
2023-12-24T07:58:12.935Z,7.53
2023-12-24T08:01:01.343Z,7.64
2023-12-24T08:03:01.442Z,7.93
2023-12-24T08:05:01.450Z,8.16
2023-12-24T08:07:01.424Z,8.52
2023-12-24T08:09:01.309Z,8.6
2023-12-24T08:11:07.033Z,8.98
2023-12-24T08:13:05.038Z,9.18
2023-12-24T08:16:19.737Z,9.33
2023-12-24T08:18:19.890Z,9.18
2023-12-24T08:20:19.731Z,9.28
2023-12-24T08:22:19.763Z,8.78
2023-12-24T08:24:19.834Z,8.82
2023-12-24T08:26:19.890Z,8.45
2023-12-24T08:28:19.689Z,7.95
2023-12-24T08:31:53.445Z,8.51
2023-12-24T08:33:53.428Z,8.69
2023-12-24T08:35:53.381Z,8.99
2023-12-24T08:37:53.432Z,9.18
2023-12-24T08:39:53.356Z,9.38
2023-12-24T08:41:53.542Z,9.6
2023-12-24T08:43:53.350Z,9.62
2023-12-24T08:46:13.258Z,9.79
2023-12-24T08:48:13.867Z,9.2
2023-12-24T08:50:13.527Z,9.62
2023-12-24T08:52:13.270Z,9.73
2023-12-24T08:54:13.285Z,9.77
2023-12-24T08:56:13.457Z,9.46
2023-12-24T08:58:13.385Z,9.3
2023-12-24T09:00:13.298Z,9.43
2023-12-24T09:01:18.652Z,9.45
2023-12-24T09:03:18.734Z,9.8
2023-12-24T09:05:18.767Z,9.77
2023-12-24T09:07:19.080Z,10.26
2023-12-24T09:09:18.768Z,10.26
2023-12-24T09:11:18.656Z,10.15
2023-12-24T09:13:21.025Z,10.07
2023-12-24T09:15:18.656Z,10.17
2023-12-24T09:17:16.750Z,10.41
2023-12-24T09:19:16.785Z,10.12
2023-12-24T09:21:16.580Z,10.04
2023-12-24T09:23:16.733Z,10.36
2023-12-24T09:25:16.796Z,10.54
2023-12-24T09:27:16.595Z,10.58
2023-12-24T09:29:16.609Z,10.75
2023-12-24T09:32:24.130Z,10.96
2023-12-24T09:34:23.876Z,10.99
2023-12-24T09:36:23.937Z,11.37
2023-12-24T09:38:24.150Z,11.06
2023-12-24T09:40:23.927Z,11.25
2023-12-24T09:42:23.954Z,11.4
2023-12-24T09:44:24.084Z,11.03
2023-12-24T09:47:10.139Z,11.21
2023-12-24T09:49:10.206Z,11.45
2023-12-24T09:51:10.159Z,11.35
2023-12-24T09:53:10.136Z,11.48
2023-12-24T09:55:10.116Z,11.31
2023-12-24T09:57:10.222Z,11.24
2023-12-24T09:59:10.319Z,11.4
2023-12-24T10:02:23.106Z,11.57
2023-12-24T10:04:23.060Z,11.48
2023-12-24T10:06:23.048Z,11.19
2023-12-24T10:08:23.076Z,11.61
2023-12-24T10:10:25.348Z,11.56
2023-12-24T10:12:23.028Z,11.55
2023-12-24T10:14:23.133Z,11.76
2023-12-24T10:17:19.324Z,12.36
2023-12-24T10:19:19.289Z,12.13
2023-12-24T10:21:19.199Z,11.93
2023-12-24T10:23:19.304Z,12
2023-12-24T10:25:19.196Z,12.25
2023-12-24T10:27:19.259Z,12.36
2023-12-24T10:29:19.311Z,12.56
2023-12-24T10:32:46.867Z,12.78
2023-12-24T10:34:46.931Z,12.82
2023-12-24T10:36:46.794Z,12.74
2023-12-24T10:38:46.756Z,12.75
2023-12-24T10:40:46.816Z,12.84
2023-12-24T10:42:46.806Z,12.84
2023-12-24T10:44:46.799Z,12.73
2023-12-24T10:48:07.899Z,12.86
2023-12-24T10:50:07.859Z,12.94
2023-12-24T10:52:07.798Z,12.75
2023-12-24T10:54:07.850Z,12.52
2023-12-24T10:56:07.852Z,12.77
2023-12-24T10:58:07.848Z,13.06
2023-12-24T11:00:07.840Z,13.21
2023-12-24T11:03:24.247Z,13.19
2023-12-24T11:05:24.330Z,13.22
2023-12-24T11:07:24.206Z,13.48
2023-12-24T11:09:24.231Z,13.28
2023-12-24T11:11:24.227Z,13.22
2023-12-24T11:13:24.228Z,13.22
2023-12-24T11:15:24.317Z,12.97
2023-12-24T11:18:20.730Z,12.97
2023-12-24T11:20:20.756Z,13.13
2023-12-24T11:22:20.673Z,13.01
2023-12-24T11:24:20.641Z,12.67
2023-12-24T11:26:20.675Z,12.81
2023-12-24T11:28:20.667Z,12.93
2023-12-24T11:30:20.709Z,12.9
2023-12-24T11:33:00.875Z,13.5
2023-12-24T11:35:00.995Z,13.64
2023-12-24T11:37:00.813Z,13.44
2023-12-24T11:39:00.901Z,13.84
2023-12-24T11:41:00.806Z,13.79
2023-12-24T11:43:00.816Z,13.43
2023-12-24T11:45:00.822Z,13.78
2023-12-24T11:47:00.950Z,13.55
2023-12-24T11:48:32.437Z,13.7
2023-12-24T11:50:32.415Z,13.91
2023-12-24T11:52:32.366Z,13.82
2023-12-24T11:54:32.395Z,13.79
2023-12-24T11:56:32.491Z,13.62
2023-12-24T11:58:32.400Z,13.69
2023-12-24T12:00:32.389Z,13.71
2023-12-24T12:03:17.973Z,13.74
2023-12-24T12:05:18.073Z,13.7
2023-12-24T12:07:17.992Z,13.5
2023-12-24T12:09:19.429Z,13.46
2023-12-24T12:11:18.118Z,13.26
2023-12-24T12:13:17.944Z,13.23
2023-12-24T12:15:18.048Z,13.18
2023-12-24T12:17:18.008Z,13.15
2023-12-24T12:19:02.059Z,12.86
2023-12-24T12:21:02.101Z,13.13
2023-12-24T12:23:02.065Z,13.2
2023-12-24T12:25:02.053Z,13.18
2023-12-24T12:27:02.111Z,13.27
2023-12-24T12:29:02.057Z,13.41
2023-12-24T12:31:02.064Z,13.25
2023-12-24T12:33:53.525Z,13.37
2023-12-24T12:35:53.401Z,13.41
2023-12-24T12:37:53.403Z,13.48
2023-12-24T12:39:53.596Z,13.23
2023-12-24T12:41:53.409Z,13.17
2023-12-24T12:43:53.374Z,13.05
2023-12-24T12:45:53.577Z,13.11
2023-12-24T12:49:42.465Z,13.27
2023-12-24T12:51:42.440Z,13.09
2023-12-24T12:53:42.530Z,13.06
2023-12-24T12:55:42.431Z,13.01
2023-12-24T12:57:42.469Z,13.01
2023-12-24T12:59:42.469Z,13.02
2023-12-24T13:01:42.422Z,13.13
2023-12-24T13:04:29.078Z,13.01
2023-12-24T13:06:29.126Z,12.89
2023-12-24T13:08:29.144Z,12.81
2023-12-24T13:10:29.100Z,12.8
2023-12-24T13:12:29.118Z,12.56
2023-12-24T13:14:29.160Z,12.55
2023-12-24T13:16:29.259Z,12.55
2023-12-24T13:19:14.924Z,12.37
2023-12-24T13:21:14.937Z,12.47
2023-12-24T13:23:14.950Z,12.45
2023-12-24T13:25:14.958Z,12.45
2023-12-24T13:27:15.098Z,12.44
2023-12-24T13:29:14.936Z,12.37
2023-12-24T13:31:14.925Z,12.32
2023-12-24T13:34:54.181Z,12.17
2023-12-24T13:36:54.142Z,12.06
2023-12-24T13:38:54.210Z,12.05
2023-12-24T13:41:00.223Z,12.08
2023-12-24T13:43:00.538Z,12.11
2023-12-24T13:44:54.102Z,12.09
2023-12-24T13:46:54.097Z,11.74
2023-12-24T13:50:21.985Z,11.9
2023-12-24T13:52:15.253Z,11.95
2023-12-24T13:54:15.320Z,11.83
2023-12-24T13:56:15.273Z,11.89
2023-12-24T13:58:15.348Z,11.91
2023-12-24T14:00:21.767Z,11.8
2023-12-24T14:02:15.258Z,11.79
2023-12-24T14:04:52.808Z,11.86
2023-12-24T14:06:52.762Z,11.81
2023-12-24T14:08:53.015Z,11.63
2023-12-24T14:10:52.759Z,11.76
2023-12-24T14:12:52.961Z,11.68
2023-12-24T14:14:52.739Z,11.6
2023-12-24T14:16:52.762Z,11.64
2023-12-24T14:20:12.939Z,11.61
2023-12-24T14:22:12.536Z,11.59
2023-12-24T14:24:12.676Z,11.41
2023-12-24T14:26:12.650Z,11.51
2023-12-24T14:28:12.560Z,11.54
2023-12-24T14:30:12.625Z,11.51
2023-12-24T14:32:12.674Z,11.39
2023-12-24T14:35:42.187Z,11.47
2023-12-24T14:37:41.942Z,11.39
2023-12-24T14:39:41.703Z,11.26
2023-12-24T14:41:41.777Z,11.2
2023-12-24T14:43:41.712Z,11.16
2023-12-24T14:45:41.715Z,11.19
2023-12-24T14:47:41.799Z,11.23
2023-12-24T14:50:56.631Z,11.1
2023-12-24T14:52:56.418Z,11.13
2023-12-24T14:54:56.318Z,11.11
2023-12-24T14:56:56.317Z,11.07
2023-12-24T14:58:56.602Z,11.02
2023-12-24T15:00:56.341Z,10.97
2023-12-24T15:02:56.697Z,10.98
2023-12-24T15:05:56.352Z,10.95
2023-12-24T15:07:56.218Z,10.9
2023-12-24T15:09:56.182Z,10.86
2023-12-24T15:11:56.493Z,10.72
2023-12-24T15:13:56.203Z,10.59
2023-12-24T15:15:56.272Z,10.62
2023-12-24T15:17:56.271Z,10.58
2023-12-24T15:20:55.736Z,10.58
2023-12-24T15:22:55.688Z,10.52
2023-12-24T15:24:55.672Z,10.5
2023-12-24T15:26:55.690Z,10.42
2023-12-24T15:28:55.604Z,10.37
2023-12-24T15:30:55.626Z,10.28
2023-12-24T15:32:55.900Z,10.22
2023-12-24T15:35:52.690Z,10.2
2023-12-24T15:37:52.605Z,10.21
2023-12-24T15:39:52.601Z,10.19
2023-12-24T15:41:52.629Z,10.14
2023-12-24T15:43:52.662Z,10.2
2023-12-24T15:45:52.636Z,10.15
2023-12-24T15:47:52.637Z,10.11
2023-12-24T15:51:45.677Z,9.95
2023-12-24T15:53:45.608Z,9.97
2023-12-24T15:55:45.647Z,9.91
2023-12-24T15:57:45.700Z,9.87
2023-12-24T15:59:45.989Z,9.82
2023-12-24T16:01:45.538Z,9.77
2023-12-24T16:03:45.558Z,9.75
2023-12-24T16:06:43.925Z,9.73
2023-12-24T16:08:43.689Z,9.71
2023-12-24T16:10:43.643Z,9.66
2023-12-24T16:12:43.616Z,9.62
2023-12-24T16:14:43.660Z,9.53
2023-12-24T16:16:43.595Z,9.52
2023-12-24T16:18:43.659Z,9.54
2023-12-24T16:21:50.649Z,9.33
2023-12-24T16:23:50.834Z,9.31
2023-12-24T16:25:50.645Z,9.23
2023-12-24T16:27:51.045Z,9.06
2023-12-24T16:29:50.722Z,9.06
2023-12-24T16:31:50.611Z,9.02
2023-12-24T16:33:50.830Z,8.87
2023-12-24T16:37:13.938Z,8.83
2023-12-24T16:39:13.985Z,8.78
2023-12-24T16:41:13.968Z,8.7
2023-12-24T16:43:13.943Z,8.66
2023-12-24T16:45:13.963Z,8.66
2023-12-24T16:47:13.940Z,8.58
2023-12-24T16:49:14.026Z,8.48
2023-12-24T16:52:10.209Z,8.43
2023-12-24T16:54:10.163Z,8.41
2023-12-24T16:56:10.272Z,8.4
2023-12-24T16:58:10.217Z,8.33
2023-12-24T17:00:10.214Z,8.31
2023-12-24T17:02:10.254Z,8.22
2023-12-24T17:04:12.365Z,8.24
2023-12-24T17:06:43.786Z,8.15
2023-12-24T17:08:43.832Z,8.21
2023-12-24T17:10:43.810Z,8.2
2023-12-24T17:12:43.879Z,8.2
2023-12-24T17:14:43.756Z,8.21
2023-12-24T17:16:43.732Z,8.22
2023-12-24T17:18:43.855Z,8.35
2023-12-24T17:20:43.922Z,8.35
2023-12-24T17:22:44.696Z,8.41
2023-12-24T17:24:44.473Z,8.38
2023-12-24T17:26:44.496Z,8.4
2023-12-24T17:28:44.501Z,8.49
2023-12-24T17:30:44.546Z,8.62
2023-12-24T17:32:44.847Z,8.6
2023-12-24T17:34:44.893Z,8.52
2023-12-24T17:37:16.881Z,8.67
2023-12-24T17:39:16.891Z,8.76
2023-12-24T17:41:16.890Z,8.7
2023-12-24T17:43:16.860Z,8.56
2023-12-24T17:45:17.010Z,8.5
2023-12-24T17:47:16.883Z,8.54
2023-12-24T17:49:16.992Z,8.61
2023-12-24T17:52:32.778Z,8.47
2023-12-24T17:54:32.777Z,8.46
2023-12-24T17:56:32.765Z,8.35
2023-12-24T17:58:32.737Z,8.41
2023-12-24T18:00:32.828Z,8.35
2023-12-24T18:02:32.809Z,8.28
2023-12-24T18:04:32.696Z,8.4
2023-12-24T18:08:15.039Z,8.33
2023-12-24T18:10:14.933Z,7.91
2023-12-24T18:12:14.932Z,7.93
2023-12-24T18:14:14.964Z,7.95
2023-12-24T18:16:15.108Z,7.89
2023-12-24T18:18:15.056Z,7.88
2023-12-24T18:20:15.055Z,7.86
2023-12-24T18:23:06.355Z,7.8
2023-12-24T18:25:06.256Z,7.73
2023-12-24T18:27:06.307Z,7.69
2023-12-24T18:29:06.267Z,7.72
2023-12-24T18:31:06.371Z,7.77
2023-12-24T18:33:06.470Z,7.76
2023-12-24T18:35:06.307Z,7.64
2023-12-24T18:37:53.331Z,7.54
2023-12-24T18:39:53.315Z,7.57
2023-12-24T18:41:53.466Z,7.49
2023-12-24T18:43:53.352Z,7.54
2023-12-24T18:45:53.301Z,7.49
2023-12-24T18:47:53.644Z,7.49
2023-12-24T18:49:53.353Z,7.44
2023-12-24T18:53:08.504Z,7.38
2023-12-24T18:55:08.360Z,7.31
2023-12-24T18:57:08.318Z,7.28
2023-12-24T18:59:08.414Z,7.24
2023-12-24T19:03:08.461Z,7.27
2023-12-24T19:05:08.432Z,7.23
2023-12-24T19:08:08.121Z,7.18
2023-12-24T19:10:08.083Z,7.41
2023-12-24T19:12:08.207Z,7.6
2023-12-24T19:16:08.107Z,7.83
2023-12-24T19:18:08.948Z,7.85
2023-12-24T19:20:08.295Z,7.9
2023-12-24T19:22:08.146Z,7.98
2023-12-24T19:23:58.988Z,8
2023-12-24T19:25:58.933Z,7.92
2023-12-24T19:28:00.653Z,7.6
2023-12-24T19:29:59.138Z,7.46
2023-12-24T19:31:58.917Z,7.21
2023-12-24T19:33:59.119Z,7.06
2023-12-24T19:35:58.938Z,7.01
2023-12-24T19:38:37.573Z,6.91
2023-12-24T19:40:37.309Z,6.88
2023-12-24T19:42:37.346Z,6.83
2023-12-24T19:44:37.466Z,6.85
2023-12-24T19:46:37.357Z,6.87
2023-12-24T19:48:37.557Z,6.84
2023-12-24T19:50:37.542Z,6.75
2023-12-24T19:53:31.606Z,6.86
2023-12-24T19:55:31.585Z,6.9
2023-12-24T19:57:31.280Z,6.87
2023-12-24T19:59:31.431Z,6.98
2023-12-24T20:01:35.360Z,7.02
2023-12-24T20:03:31.227Z,7.14
2023-12-24T20:05:31.489Z,7.24
2023-12-24T20:07:31.247Z,7.36
2023-12-24T20:09:18.999Z,7.52
2023-12-24T20:11:18.965Z,7.56
2023-12-24T20:13:18.882Z,7.59
2023-12-24T20:15:19.028Z,7.6
2023-12-24T20:17:19.006Z,7.63
2023-12-24T20:19:18.871Z,7.72
2023-12-24T20:21:18.851Z,7.67
2023-12-24T20:24:45.399Z,7.85
2023-12-24T20:26:45.184Z,7.84
2023-12-24T20:28:45.112Z,7.57
2023-12-24T20:30:45.399Z,6.97
2023-12-24T20:32:45.180Z,6.45
2023-12-24T20:34:45.272Z,6.53
2023-12-24T20:36:45.301Z,6.54
2023-12-24T20:39:55.058Z,6.46
2023-12-24T20:41:55.228Z,6.48
2023-12-24T20:43:55.066Z,6.48
2023-12-24T20:45:55.154Z,6.4
2023-12-24T20:47:55.504Z,6.4
2023-12-24T20:49:55.050Z,6.32
2023-12-24T20:51:55.037Z,6.34
2023-12-24T20:55:05.456Z,6.26
2023-12-24T20:57:05.393Z,6.34
2023-12-24T20:59:05.342Z,6.3
2023-12-24T21:01:05.433Z,6.31
2023-12-24T21:03:05.481Z,6.38
2023-12-24T21:05:05.421Z,6.38
2023-12-24T21:07:05.430Z,6.36
2023-12-24T21:10:01.173Z,6.42
2023-12-24T21:12:01.196Z,6.41
2023-12-24T21:14:01.194Z,6.28
2023-12-24T21:16:01.199Z,6.32
2023-12-24T21:18:01.363Z,6.29
2023-12-24T21:20:01.157Z,6.3
2023-12-24T21:22:01.461Z,6.3
2023-12-24T21:25:04.532Z,6.22
2023-12-24T21:27:04.548Z,6.23
2023-12-24T21:29:04.662Z,6.22
2023-12-24T21:31:04.587Z,6.21
2023-12-24T21:33:04.632Z,6.15
2023-12-24T21:35:04.611Z,6.09
2023-12-24T21:37:04.518Z,6.08
2023-12-24T21:39:57.076Z,5.99
2023-12-24T21:41:57.112Z,5.87
2023-12-24T21:43:57.069Z,5.91
2023-12-24T21:45:57.084Z,5.83
2023-12-24T21:47:57.439Z,5.78
2023-12-24T21:49:57.269Z,5.82
2023-12-24T21:51:57.037Z,5.78
2023-12-24T21:55:26.663Z,5.73
2023-12-24T21:57:26.590Z,5.7
2023-12-24T21:59:26.766Z,5.63
2023-12-24T22:01:29.479Z,5.62
2023-12-24T22:03:28.683Z,5.63
2023-12-24T22:05:26.675Z,5.62
2023-12-24T22:07:26.702Z,5.59
2023-12-24T22:10:30.042Z,5.66
2023-12-24T22:12:29.929Z,5.65
2023-12-24T22:14:29.963Z,5.56
2023-12-24T22:16:30.154Z,5.5
2023-12-24T22:18:30.013Z,5.52
2023-12-24T22:20:30.036Z,5.48
2023-12-24T22:22:29.946Z,5.45
2023-12-24T22:25:55.093Z,5.47
2023-12-24T22:27:56.419Z,5.44
2023-12-24T22:29:55.239Z,5.45
2023-12-24T22:31:55.151Z,5.44
2023-12-24T22:33:55.286Z,5.4
2023-12-24T22:35:55.099Z,5.39
2023-12-24T22:37:55.435Z,5.39
2023-12-24T22:41:03.950Z,5.37
2023-12-24T22:43:03.922Z,5.36
2023-12-24T22:45:03.921Z,5.37
2023-12-24T22:47:04.050Z,5.35
2023-12-24T22:49:04.106Z,5.31
2023-12-24T22:51:04.000Z,5.34
2023-12-24T22:53:03.949Z,5.45
2023-12-24T22:56:22.164Z,5.37
2023-12-24T22:58:22.057Z,5.34
2023-12-24T23:00:22.060Z,5.33
2023-12-24T23:02:22.147Z,5.3
2023-12-24T23:04:22.051Z,5.23
2023-12-24T23:06:22.279Z,5.19
2023-12-24T23:08:22.477Z,5.13
2023-12-24T23:10:55.320Z,5.07
2023-12-24T23:12:55.287Z,5.07
2023-12-24T23:14:55.425Z,5.06
2023-12-24T23:16:55.285Z,5.04
2023-12-24T23:18:55.402Z,5.04
2023-12-24T23:20:55.643Z,4.98
2023-12-24T23:22:55.265Z,4.96
2023-12-24T23:26:34.909Z,4.89
2023-12-24T23:28:34.564Z,4.86
2023-12-24T23:30:34.516Z,4.8
2023-12-24T23:32:34.690Z,4.74
2023-12-24T23:34:34.691Z,4.66
2023-12-24T23:36:34.508Z,4.64
2023-12-24T23:38:34.726Z,4.57
2023-12-24T23:41:33.474Z,4.55
2023-12-24T23:43:33.708Z,4.54
2023-12-24T23:45:33.439Z,4.51
2023-12-24T23:47:33.583Z,4.53
2023-12-24T23:49:33.558Z,4.63
2023-12-24T23:51:33.472Z,4.55
2023-12-24T23:53:33.509Z,4.45
2023-12-24T23:56:40.654Z,4.33
2023-12-24T23:58:40.778Z,4.37
